sensor_id;sensor_type;location;lat;lon;timestamp;pressure;altitude;pressure_sealevel;temperature;humidity
12054;BME280;5638;50.860;4.698;2022-08-14T00:00:53;100651.34;;;26.18;nan
12054;BME280;5638;50.860;4.698;2022-08-14T00:03:28;100649.91;;;26.14;nan
12054;BME280;5638;50.860;4.698;2022-08-14T00:05:55;100637.88;;;26.10;nan
12054;BME280;5638;50.860;4.698;2022-08-14T00:08:22;100642.97;;;26.02;nan
12054;BME280;5638;50.860;4.698;2022-08-14T00:10:48;100630.47;;;25.93;nan
12054;BME280;5638;50.860;4.698;2022-08-14T00:13:18;100639.34;;;26.03;nan
12054;BME280;5638;50.860;4.698;2022-08-14T00:15:48;100643.56;;;26.05;nan
12054;BME280;5638;50.860;4.698;2022-08-14T00:18:18;100639.72;;;25.98;nan
12054;BME280;5638;50.860;4.698;2022-08-14T00:20:45;100640.72;;;25.97;nan
12054;BME280;5638;50.860;4.698;2022-08-14T00:23:14;100617.50;;;25.78;nan
12054;BME280;5638;50.860;4.698;2022-08-14T00:25:42;100627.88;;;25.81;nan
12054;BME280;5638;50.860;4.698;2022-08-14T00:28:10;100649.28;;;25.90;nan
12054;BME280;5638;50.860;4.698;2022-08-14T00:30:37;100648.75;;;25.96;nan
12054;BME280;5638;50.860;4.698;2022-08-14T00:33:03;100646.22;;;26.05;nan
12054;BME280;5638;50.860;4.698;2022-08-14T00:35:30;100630.41;;;26.04;nan
12054;BME280;5638;50.860;4.698;2022-08-14T00:37:57;100624.34;;;25.92;nan
12054;BME280;5638;50.860;4.698;2022-08-14T00:40:23;100623.16;;;25.85;nan
12054;BME280;5638;50.860;4.698;2022-08-14T00:42:50;100631.19;;;25.95;nan
12054;BME280;5638;50.860;4.698;2022-08-14T00:45:17;100628.31;;;25.87;nan
12054;BME280;5638;50.860;4.698;2022-08-14T00:47:45;100627.03;;;25.81;nan
12054;BME280;5638;50.860;4.698;2022-08-14T00:50:17;100620.25;;;25.88;nan
12054;BME280;5638;50.860;4.698;2022-08-14T00:52:45;100621.56;;;25.94;nan
12054;BME280;5638;50.860;4.698;2022-08-14T00:55:13;100622.63;;;25.91;nan
12054;BME280;5638;50.860;4.698;2022-08-14T00:57:39;100618.16;;;25.92;nan
12054;BME280;5638;50.860;4.698;2022-08-14T01:00:13;100607.84;;;25.89;nan
12054;BME280;5638;50.860;4.698;2022-08-14T01:02:43;100602.44;;;25.79;nan
12054;BME280;5638;50.860;4.698;2022-08-14T01:05:11;100614.59;;;25.81;nan
12054;BME280;5638;50.860;4.698;2022-08-14T01:07:53;100613.38;;;25.74;nan
12054;BME280;5638;50.860;4.698;2022-08-14T01:10:25;100613.91;;;25.68;nan
12054;BME280;5638;50.860;4.698;2022-08-14T01:13:14;100610.34;;;25.47;nan
12054;BME280;5638;50.860;4.698;2022-08-14T01:15:47;100614.22;;;25.43;nan
12054;BME280;5638;50.860;4.698;2022-08-14T01:18:14;100592.78;;;25.46;nan
12054;BME280;5638;50.860;4.698;2022-08-14T01:20:59;100611.53;;;25.54;nan
12054;BME280;5638;50.860;4.698;2022-08-14T01:23:30;100596.50;;;25.54;nan
12054;BME280;5638;50.860;4.698;2022-08-14T01:25:57;100597.41;;;25.65;nan
12054;BME280;5638;50.860;4.698;2022-08-14T01:28:24;100594.91;;;25.63;nan
12054;BME280;5638;50.860;4.698;2022-08-14T01:30:54;100585.78;;;25.45;nan
12054;BME280;5638;50.860;4.698;2022-08-14T01:33:24;100587.75;;;25.31;nan
12054;BME280;5638;50.860;4.698;2022-08-14T01:35:58;100585.69;;;25.35;nan
12054;BME280;5638;50.860;4.698;2022-08-14T01:38:27;100583.19;;;25.33;nan
12054;BME280;5638;50.860;4.698;2022-08-14T01:41:13;100588.44;;;25.45;nan
12054;BME280;5638;50.860;4.698;2022-08-14T01:43:55;100594.84;;;25.42;nan
12054;BME280;5638;50.860;4.698;2022-08-14T01:46:31;100593.53;;;25.25;nan
12054;BME280;5638;50.860;4.698;2022-08-14T01:49:02;100585.84;;;25.11;nan
12054;BME280;5638;50.860;4.698;2022-08-14T01:51:31;100582.22;;;25.01;nan
12054;BME280;5638;50.860;4.698;2022-08-14T01:54:03;100579.81;;;24.98;nan
12054;BME280;5638;50.860;4.698;2022-08-14T01:56:33;100584.88;;;25.12;nan
12054;BME280;5638;50.860;4.698;2022-08-14T01:59:17;100576.69;;;25.26;nan
12054;BME280;5638;50.860;4.698;2022-08-14T02:01:49;100576.66;;;25.38;nan
12054;BME280;5638;50.860;4.698;2022-08-14T02:04:20;100568.56;;;25.50;nan
12054;BME280;5638;50.860;4.698;2022-08-14T02:06:48;100566.13;;;25.58;nan
12054;BME280;5638;50.860;4.698;2022-08-14T02:09:19;100557.06;;;25.61;nan
12054;BME280;5638;50.860;4.698;2022-08-14T02:11:46;100565.25;;;25.58;nan
12054;BME280;5638;50.860;4.698;2022-08-14T02:14:13;100560.19;;;25.34;nan
12054;BME280;5638;50.860;4.698;2022-08-14T02:16:44;100560.81;;;25.26;nan
12054;BME280;5638;50.860;4.698;2022-08-14T02:19:16;100560.06;;;25.24;nan
12054;BME280;5638;50.860;4.698;2022-08-14T02:21:46;100558.91;;;25.17;nan
12054;BME280;5638;50.860;4.698;2022-08-14T02:24:14;100556.13;;;25.19;nan
12054;BME280;5638;50.860;4.698;2022-08-14T02:26:43;100559.34;;;25.22;nan
12054;BME280;5638;50.860;4.698;2022-08-14T02:29:24;100545.50;;;25.30;nan
12054;BME280;5638;50.860;4.698;2022-08-14T02:31:56;100554.31;;;25.19;nan
12054;BME280;5638;50.860;4.698;2022-08-14T02:34:28;100545.53;;;25.19;nan
12054;BME280;5638;50.860;4.698;2022-08-14T02:37:08;100546.13;;;25.11;nan
12054;BME280;5638;50.860;4.698;2022-08-14T02:39:42;100552.00;;;25.03;nan
12054;BME280;5638;50.860;4.698;2022-08-14T02:42:14;100527.63;;;24.89;nan
12054;BME280;5638;50.860;4.698;2022-08-14T02:44:42;100544.78;;;25.05;nan
12054;BME280;5638;50.860;4.698;2022-08-14T02:47:08;100546.72;;;25.15;nan
12054;BME280;5638;50.860;4.698;2022-08-14T02:49:35;100549.63;;;25.12;nan
12054;BME280;5638;50.860;4.698;2022-08-14T02:52:02;100535.53;;;25.11;nan
12054;BME280;5638;50.860;4.698;2022-08-14T02:54:31;100545.50;;;25.30;nan
12054;BME280;5638;50.860;4.698;2022-08-14T02:56:59;100549.84;;;25.20;nan
12054;BME280;5638;50.860;4.698;2022-08-14T02:59:31;100547.09;;;25.10;nan
12054;BME280;5638;50.860;4.698;2022-08-14T03:01:58;100550.47;;;25.01;nan
12054;BME280;5638;50.860;4.698;2022-08-14T03:04:25;100549.88;;;25.08;nan
12054;BME280;5638;50.860;4.698;2022-08-14T03:06:53;100544.69;;;25.18;nan
12054;BME280;5638;50.860;4.698;2022-08-14T03:09:19;100536.22;;;25.24;nan
12054;BME280;5638;50.860;4.698;2022-08-14T03:11:45;100535.63;;;25.32;nan
12054;BME280;5638;50.860;4.698;2022-08-14T03:14:12;100547.53;;;25.38;nan
12054;BME280;5638;50.860;4.698;2022-08-14T03:16:40;100544.66;;;25.29;nan
12054;BME280;5638;50.860;4.698;2022-08-14T03:19:08;100543.94;;;25.27;nan
12054;BME280;5638;50.860;4.698;2022-08-14T03:21:36;100541.44;;;25.15;nan
12054;BME280;5638;50.860;4.698;2022-08-14T03:24:03;100543.50;;;25.00;nan
12054;BME280;5638;50.860;4.698;2022-08-14T03:26:44;100545.41;;;24.87;nan
12054;BME280;5638;50.860;4.698;2022-08-14T03:29:13;100545.81;;;24.71;nan
12054;BME280;5638;50.860;4.698;2022-08-14T03:31:41;100541.34;;;24.60;nan
12054;BME280;5638;50.860;4.698;2022-08-14T03:34:08;100532.19;;;24.64;nan
12054;BME280;5638;50.860;4.698;2022-08-14T03:36:36;100546.38;;;24.85;nan
12054;BME280;5638;50.860;4.698;2022-08-14T03:39:07;100541.69;;;25.00;nan
12054;BME280;5638;50.860;4.698;2022-08-14T03:41:33;100545.31;;;24.88;nan
12054;BME280;5638;50.860;4.698;2022-08-14T03:44:03;100531.19;;;24.99;nan
12054;BME280;5638;50.860;4.698;2022-08-14T03:46:35;100538.31;;;24.87;nan
12054;BME280;5638;50.860;4.698;2022-08-14T03:49:02;100535.78;;;24.97;nan
12054;BME280;5638;50.860;4.698;2022-08-14T03:51:32;100527.47;;;25.01;nan
12054;BME280;5638;50.860;4.698;2022-08-14T03:54:02;100517.59;;;25.03;nan
12054;BME280;5638;50.860;4.698;2022-08-14T03:56:28;100512.72;;;24.88;nan
12054;BME280;5638;50.860;4.698;2022-08-14T03:59:00;100499.94;;;24.93;nan
12054;BME280;5638;50.860;4.698;2022-08-14T04:01:37;100494.41;;;24.96;nan
12054;BME280;5638;50.860;4.698;2022-08-14T04:04:05;100485.97;;;24.91;nan
12054;BME280;5638;50.860;4.698;2022-08-14T04:06:37;100492.59;;;24.96;nan
12054;BME280;5638;50.860;4.698;2022-08-14T04:09:06;100483.44;;;25.00;nan
12054;BME280;5638;50.860;4.698;2022-08-14T04:11:34;100468.06;;;24.83;nan
12054;BME280;5638;50.860;4.698;2022-08-14T04:14:01;100491.03;;;24.94;nan
12054;BME280;5638;50.860;4.698;2022-08-14T04:16:28;100490.81;;;24.85;nan
12054;BME280;5638;50.860;4.698;2022-08-14T04:18:57;100483.13;;;24.71;nan
12054;BME280;5638;50.860;4.698;2022-08-14T04:21:26;100483.97;;;24.72;nan
12054;BME280;5638;50.860;4.698;2022-08-14T04:23:56;100470.53;;;24.64;nan
12054;BME280;5638;50.860;4.698;2022-08-14T04:26:26;100472.78;;;24.57;nan
12054;BME280;5638;50.860;4.698;2022-08-14T04:28:53;100468.47;;;24.67;nan
12054;BME280;5638;50.860;4.698;2022-08-14T04:31:21;100472.19;;;24.76;nan
12054;BME280;5638;50.860;4.698;2022-08-14T04:33:48;100458.22;;;24.74;nan
12054;BME280;5638;50.860;4.698;2022-08-14T04:36:14;100470.72;;;24.83;nan
12054;BME280;5638;50.860;4.698;2022-08-14T04:38:40;100478.31;;;24.76;nan
12054;BME280;5638;50.860;4.698;2022-08-14T04:41:24;100469.91;;;24.71;nan
12054;BME280;5638;50.860;4.698;2022-08-14T04:44:09;100489.16;;;24.51;nan
12054;BME280;5638;50.860;4.698;2022-08-14T04:46:35;100491.06;;;24.60;nan
12054;BME280;5638;50.860;4.698;2022-08-14T04:49:04;100477.84;;;24.71;nan
12054;BME280;5638;50.860;4.698;2022-08-14T04:51:30;100483.13;;;24.60;nan
12054;BME280;5638;50.860;4.698;2022-08-14T04:53:58;100493.47;;;24.52;nan
12054;BME280;5638;50.860;4.698;2022-08-14T04:56:26;100497.44;;;24.57;nan
12054;BME280;5638;50.860;4.698;2022-08-14T04:59:02;100498.28;;;24.69;nan
12054;BME280;5638;50.860;4.698;2022-08-14T05:01:29;100505.63;;;24.66;nan
12054;BME280;5638;50.860;4.698;2022-08-14T05:03:55;100490.81;;;24.74;nan
12054;BME280;5638;50.860;4.698;2022-08-14T05:06:21;100488.06;;;24.76;nan
12054;BME280;5638;50.860;4.698;2022-08-14T05:08:47;100482.63;;;24.77;nan
12054;BME280;5638;50.860;4.698;2022-08-14T05:11:14;100487.09;;;24.77;nan
12054;BME280;5638;50.860;4.698;2022-08-14T05:13:40;100482.41;;;24.69;nan
12054;BME280;5638;50.860;4.698;2022-08-14T05:16:06;100486.38;;;24.75;nan
12054;BME280;5638;50.860;4.698;2022-08-14T05:18:37;100487.69;;;24.80;nan
12054;BME280;5638;50.860;4.698;2022-08-14T05:21:07;100488.41;;;24.82;nan
12054;BME280;5638;50.860;4.698;2022-08-14T05:23:37;100468.56;;;24.88;nan
12054;BME280;5638;50.860;4.698;2022-08-14T05:26:04;100473.47;;;24.93;nan
12054;BME280;5638;50.860;4.698;2022-08-14T05:28:40;100476.88;;;24.83;nan
12054;BME280;5638;50.860;4.698;2022-08-14T05:31:13;100480.69;;;24.91;nan
12054;BME280;5638;50.860;4.698;2022-08-14T05:33:39;100480.22;;;24.97;nan
12054;BME280;5638;50.860;4.698;2022-08-14T05:36:08;100479.97;;;25.00;nan
12054;BME280;5638;50.860;4.698;2022-08-14T05:38:43;100473.56;;;25.02;nan
12054;BME280;5638;50.860;4.698;2022-08-14T05:41:16;100483.06;;;25.05;nan
12054;BME280;5638;50.860;4.698;2022-08-14T05:43:46;100440.28;;;24.89;nan
12054;BME280;5638;50.860;4.698;2022-08-14T05:46:15;100466.91;;;25.08;nan
12054;BME280;5638;50.860;4.698;2022-08-14T05:48:49;100466.72;;;25.11;nan
12054;BME280;5638;50.860;4.698;2022-08-14T05:51:16;100467.44;;;25.13;nan
12054;BME280;5638;50.860;4.698;2022-08-14T05:53:42;100468.38;;;25.12;nan
12054;BME280;5638;50.860;4.698;2022-08-14T05:56:08;100468.13;;;25.04;nan
12054;BME280;5638;50.860;4.698;2022-08-14T05:58:34;100467.44;;;25.02;nan
12054;BME280;5638;50.860;4.698;2022-08-14T06:00:59;100466.47;;;25.03;nan
12054;BME280;5638;50.860;4.698;2022-08-14T06:03:25;100465.25;;;25.07;nan
12054;BME280;5638;50.860;4.698;2022-08-14T06:05:53;100469.13;;;25.14;nan
12054;BME280;5638;50.860;4.698;2022-08-14T06:10:48;100455.63;;;25.17;nan
12054;BME280;5638;50.860;4.698;2022-08-14T06:13:15;100460.41;;;25.23;nan
12054;BME280;5638;50.860;4.698;2022-08-14T06:15:42;100451.50;;;25.24;nan
12054;BME280;5638;50.860;4.698;2022-08-14T06:18:08;100462.56;;;25.29;nan
12054;BME280;5638;50.860;4.698;2022-08-14T06:20:34;100456.06;;;25.33;nan
12054;BME280;5638;50.860;4.698;2022-08-14T06:23:00;100454.41;;;25.21;nan
12054;BME280;5638;50.860;4.698;2022-08-14T06:25:26;100465.59;;;25.25;nan
12054;BME280;5638;50.860;4.698;2022-08-14T06:27:52;100464.50;;;25.27;nan
12054;BME280;5638;50.860;4.698;2022-08-14T06:30:25;100462.81;;;25.26;nan
12054;BME280;5638;50.860;4.698;2022-08-14T06:32:52;100450.22;;;25.19;nan
12054;BME280;5638;50.860;4.698;2022-08-14T06:35:19;100460.63;;;25.31;nan
12054;BME280;5638;50.860;4.698;2022-08-14T06:37:53;100456.63;;;25.37;nan
12054;BME280;5638;50.860;4.698;2022-08-14T06:40:29;100454.19;;;25.45;nan
12054;BME280;5638;50.860;4.698;2022-08-14T06:42:58;100451.31;;;25.37;nan
12054;BME280;5638;50.860;4.698;2022-08-14T06:45:24;100458.16;;;25.51;nan
12054;BME280;5638;50.860;4.698;2022-08-14T06:47:50;100436.63;;;25.44;nan
12054;BME280;5638;50.860;4.698;2022-08-14T06:50:19;100451.47;;;25.56;nan
12054;BME280;5638;50.860;4.698;2022-08-14T06:52:47;100445.78;;;25.61;nan
12054;BME280;5638;50.860;4.698;2022-08-14T06:55:15;100447.34;;;25.64;nan
12054;BME280;5638;50.860;4.698;2022-08-14T06:57:47;100445.84;;;25.71;nan
12054;BME280;5638;50.860;4.698;2022-08-14T07:00:21;100440.66;;;25.80;nan
12054;BME280;5638;50.860;4.698;2022-08-14T07:02:48;100451.47;;;25.89;nan
12054;BME280;5638;50.860;4.698;2022-08-14T07:05:33;100451.16;;;25.92;nan
12054;BME280;5638;50.860;4.698;2022-08-14T07:08:21;100437.28;;;25.99;nan
12054;BME280;5638;50.860;4.698;2022-08-14T07:10:53;100432.28;;;26.06;nan
12054;BME280;5638;50.860;4.698;2022-08-14T07:13:20;100434.56;;;26.20;nan
12054;BME280;5638;50.860;4.698;2022-08-14T07:15:48;100409.25;;;26.06;nan
12054;BME280;5638;50.860;4.698;2022-08-14T07:18:24;100425.84;;;26.29;nan
12054;BME280;5638;50.860;4.698;2022-08-14T07:20:51;100424.59;;;26.33;nan
12054;BME280;5638;50.860;4.698;2022-08-14T07:23:20;100412.59;;;26.39;nan
12054;BME280;5638;50.860;4.698;2022-08-14T07:25:50;100412.19;;;26.44;nan
12054;BME280;5638;50.860;4.698;2022-08-14T07:30:54;100404.25;;;26.44;nan
12054;BME280;5638;50.860;4.698;2022-08-14T07:33:24;100403.41;;;26.43;nan
12054;BME280;5638;50.860;4.698;2022-08-14T07:35:52;100413.91;;;26.45;nan
12054;BME280;5638;50.860;4.698;2022-08-14T07:38:22;100402.56;;;26.43;nan
12054;BME280;5638;50.860;4.698;2022-08-14T07:40:50;100414.63;;;26.47;nan
12054;BME280;5638;50.860;4.698;2022-08-14T07:43:16;100413.22;;;26.52;nan
12054;BME280;5638;50.860;4.698;2022-08-14T07:45:42;100398.28;;;26.51;nan
12054;BME280;5638;50.860;4.698;2022-08-14T07:48:09;100402.34;;;26.55;nan
12054;BME280;5638;50.860;4.698;2022-08-14T07:50:35;100398.56;;;26.58;nan
12054;BME280;5638;50.860;4.698;2022-08-14T07:53:04;100400.28;;;26.59;nan
12054;BME280;5638;50.860;4.698;2022-08-14T07:55:31;100409.09;;;26.69;nan
12054;BME280;5638;50.860;4.698;2022-08-14T07:57:58;100400.97;;;26.71;nan
12054;BME280;5638;50.860;4.698;2022-08-14T08:00:25;100407.16;;;26.91;nan
12054;BME280;5638;50.860;4.698;2022-08-14T08:02:55;100395.13;;;26.87;nan
12054;BME280;5638;50.860;4.698;2022-08-14T08:05:23;100405.47;;;26.90;nan
12054;BME280;5638;50.860;4.698;2022-08-14T08:07:51;100403.25;;;26.95;nan
12054;BME280;5638;50.860;4.698;2022-08-14T08:10:23;100400.72;;;27.03;nan
12054;BME280;5638;50.860;4.698;2022-08-14T08:13:09;100401.44;;;27.05;nan
12054;BME280;5638;50.860;4.698;2022-08-14T08:15:42;100399.75;;;27.04;nan
12054;BME280;5638;50.860;4.698;2022-08-14T08:18:11;100394.16;;;27.07;nan
12054;BME280;5638;50.860;4.698;2022-08-14T08:20:46;100400.78;;;27.22;nan
12054;BME280;5638;50.860;4.698;2022-08-14T08:23:16;100404.97;;;27.35;nan
12054;BME280;5638;50.860;4.698;2022-08-14T08:25:46;100400.31;;;27.46;nan
12054;BME280;5638;50.860;4.698;2022-08-14T08:28:23;100399.59;;;27.54;nan
12054;BME280;5638;50.860;4.698;2022-08-14T08:30:52;100403.66;;;27.68;nan
12054;BME280;5638;50.860;4.698;2022-08-14T08:33:21;100399.59;;;27.73;nan
12054;BME280;5638;50.860;4.698;2022-08-14T08:35:48;100390.19;;;27.79;nan
12054;BME280;5638;50.860;4.698;2022-08-14T08:38:23;100386.97;;;27.85;nan
12054;BME280;5638;50.860;4.698;2022-08-14T08:40:54;100385.59;;;28.09;nan
12054;BME280;5638;50.860;4.698;2022-08-14T08:43:33;100387.47;;;27.98;nan
12054;BME280;5638;50.860;4.698;2022-08-14T08:46:04;100393.63;;;27.99;nan
12054;BME280;5638;50.860;4.698;2022-08-14T08:48:55;100389.41;;;28.06;nan
12054;BME280;5638;50.860;4.698;2022-08-14T08:51:41;100393.75;;;28.07;nan
12054;BME280;5638;50.860;4.698;2022-08-14T08:54:13;100382.59;;;28.31;nan
12054;BME280;5638;50.860;4.698;2022-08-14T08:59:27;100386.44;;;28.46;nan
12054;BME280;5638;50.860;4.698;2022-08-14T09:01:59;100369.94;;;28.43;nan
12054;BME280;5638;50.860;4.698;2022-08-14T09:04:28;100364.03;;;28.67;nan
12054;BME280;5638;50.860;4.698;2022-08-14T09:06:54;100365.56;;;28.69;nan
12054;BME280;5638;50.860;4.698;2022-08-14T09:09:25;100366.00;;;28.65;nan
12054;BME280;5638;50.860;4.698;2022-08-14T09:11:53;100365.34;;;28.81;nan
12054;BME280;5638;50.860;4.698;2022-08-14T09:14:25;100364.91;;;29.03;nan
12054;BME280;5638;50.860;4.698;2022-08-14T09:16:52;100352.41;;;29.03;nan
12054;BME280;5638;50.860;4.698;2022-08-14T09:19:19;100369.59;;;29.09;nan
12054;BME280;5638;50.860;4.698;2022-08-14T09:21:46;100356.91;;;29.03;nan
12054;BME280;5638;50.860;4.698;2022-08-14T09:24:13;100346.84;;;28.97;nan
12054;BME280;5638;50.860;4.698;2022-08-14T09:26:41;100348.22;;;29.19;nan
12054;BME280;5638;50.860;4.698;2022-08-14T09:29:08;100351.09;;;29.25;nan
12054;BME280;5638;50.860;4.698;2022-08-14T09:31:38;100348.06;;;29.20;nan
12054;BME280;5638;50.860;4.698;2022-08-14T09:37:17;100342.72;;;29.20;nan
12054;BME280;5638;50.860;4.698;2022-08-14T09:43:12;100335.38;;;29.40;nan
12054;BME280;5638;50.860;4.698;2022-08-14T09:45:47;100339.28;;;29.28;nan
12054;BME280;5638;50.860;4.698;2022-08-14T09:48:16;100337.81;;;29.34;nan
12054;BME280;5638;50.860;4.698;2022-08-14T09:50:55;100328.94;;;29.51;nan
12054;BME280;5638;50.860;4.698;2022-08-14T09:53:44;100329.06;;;29.67;nan
12054;BME280;5638;50.860;4.698;2022-08-14T09:56:13;100324.72;;;29.66;nan
12054;BME280;5638;50.860;4.698;2022-08-14T09:58:45;100329.19;;;29.58;nan
12054;BME280;5638;50.860;4.698;2022-08-14T10:01:15;100312.53;;;29.64;nan
12054;BME280;5638;50.860;4.698;2022-08-14T10:03:54;100332.31;;;29.87;nan
12054;BME280;5638;50.860;4.698;2022-08-14T10:06:26;100326.66;;;29.82;nan
12054;BME280;5638;50.860;4.698;2022-08-14T10:09:03;100323.09;;;29.73;nan
12054;BME280;5638;50.860;4.698;2022-08-14T10:11:33;100327.69;;;29.89;nan
12054;BME280;5638;50.860;4.698;2022-08-14T10:14:20;100318.91;;;29.71;nan
12054;BME280;5638;50.860;4.698;2022-08-14T10:16:55;100323.38;;;29.62;nan
12054;BME280;5638;50.860;4.698;2022-08-14T10:19:26;100319.28;;;29.50;nan
12054;BME280;5638;50.860;4.698;2022-08-14T10:22:08;100320.75;;;29.70;nan
12054;BME280;5638;50.860;4.698;2022-08-14T10:24:42;100318.47;;;29.84;nan
12054;BME280;5638;50.860;4.698;2022-08-14T10:27:18;100328.25;;;30.09;nan
12054;BME280;5638;50.860;4.698;2022-08-14T10:29:56;100314.38;;;30.40;nan
12054;BME280;5638;50.860;4.698;2022-08-14T10:32:27;100300.69;;;30.51;nan
12054;BME280;5638;50.860;4.698;2022-08-14T10:35:06;100296.59;;;30.73;nan
12054;BME280;5638;50.860;4.698;2022-08-14T10:37:41;100275.53;;;30.94;nan
12054;BME280;5638;50.860;4.698;2022-08-14T10:40:08;100275.97;;;31.22;nan
12054;BME280;5638;50.860;4.698;2022-08-14T10:42:38;100278.19;;;31.19;nan
12054;BME280;5638;50.860;4.698;2022-08-14T10:45:32;100286.69;;;31.14;nan
12054;BME280;5638;50.860;4.698;2022-08-14T10:47:58;100282.03;;;30.92;nan
12054;BME280;5638;50.860;4.698;2022-08-14T10:50:39;100276.56;;;30.85;nan
12054;BME280;5638;50.860;4.698;2022-08-14T10:53:06;100272.53;;;30.73;nan
12054;BME280;5638;50.860;4.698;2022-08-14T10:55:37;100265.88;;;30.77;nan
12054;BME280;5638;50.860;4.698;2022-08-14T10:58:08;100261.00;;;30.89;nan
12054;BME280;5638;50.860;4.698;2022-08-14T11:00:38;100261.81;;;31.06;nan
12054;BME280;5638;50.860;4.698;2022-08-14T11:03:12;100258.31;;;30.97;nan
12054;BME280;5638;50.860;4.698;2022-08-14T11:05:48;100263.84;;;30.87;nan
12054;BME280;5638;50.860;4.698;2022-08-14T11:08:17;100254.31;;;30.93;nan
12054;BME280;5638;50.860;4.698;2022-08-14T11:10:58;100252.97;;;31.05;nan
12054;BME280;5638;50.860;4.698;2022-08-14T11:13:29;100242.94;;;31.15;nan
12054;BME280;5638;50.860;4.698;2022-08-14T11:15:58;100241.56;;;31.28;nan
12054;BME280;5638;50.860;4.698;2022-08-14T11:18:26;100235.34;;;31.43;nan
12054;BME280;5638;50.860;4.698;2022-08-14T11:20:56;100237.50;;;31.56;nan
12054;BME280;5638;50.860;4.698;2022-08-14T11:23:30;100216.69;;;31.74;nan
12054;BME280;5638;50.860;4.698;2022-08-14T11:25:59;100214.06;;;31.97;nan
12054;BME280;5638;50.860;4.698;2022-08-14T11:28:31;100208.44;;;32.38;nan
12054;BME280;5638;50.860;4.698;2022-08-14T11:30:58;100202.94;;;32.78;nan
12054;BME280;5638;50.860;4.698;2022-08-14T11:33:28;100214.25;;;33.17;nan
12054;BME280;5638;50.860;4.698;2022-08-14T11:35:58;100214.63;;;33.29;nan
12054;BME280;5638;50.860;4.698;2022-08-14T11:38:27;100212.88;;;33.21;nan
12054;BME280;5638;50.860;4.698;2022-08-14T11:40:56;100207.78;;;33.27;nan
12054;BME280;5638;50.860;4.698;2022-08-14T11:43:22;100202.31;;;33.35;nan
12054;BME280;5638;50.860;4.698;2022-08-14T11:45:50;100199.72;;;33.27;nan
12054;BME280;5638;50.860;4.698;2022-08-14T11:48:21;100193.00;;;33.45;nan
12054;BME280;5638;50.860;4.698;2022-08-14T11:50:50;100199.91;;;33.40;nan
12054;BME280;5638;50.860;4.698;2022-08-14T11:53:27;100191.69;;;33.27;nan
12054;BME280;5638;50.860;4.698;2022-08-14T11:56:05;100197.16;;;33.48;nan
12054;BME280;5638;50.860;4.698;2022-08-14T11:58:36;100187.59;;;33.75;nan
12054;BME280;5638;50.860;4.698;2022-08-14T12:01:06;100194.91;;;34.03;nan
12054;BME280;5638;50.860;4.698;2022-08-14T12:03:46;100190.78;;;34.00;nan
12054;BME280;5638;50.860;4.698;2022-08-14T12:06:15;100190.22;;;33.90;nan
12054;BME280;5638;50.860;4.698;2022-08-14T12:08:43;100198.53;;;33.95;nan
12054;BME280;5638;50.860;4.698;2022-08-14T12:11:13;100188.88;;;34.15;nan
12054;BME280;5638;50.860;4.698;2022-08-14T12:13:41;100185.44;;;34.07;nan
12054;BME280;5638;50.860;4.698;2022-08-14T12:16:12;100192.88;;;34.05;nan
12054;BME280;5638;50.860;4.698;2022-08-14T12:18:44;100177.84;;;34.10;nan
12054;BME280;5638;50.860;4.698;2022-08-14T12:21:24;100186.22;;;34.43;nan
12054;BME280;5638;50.860;4.698;2022-08-14T12:24:08;100178.88;;;34.52;nan
12054;BME280;5638;50.860;4.698;2022-08-14T12:26:35;100185.47;;;34.50;nan
12054;BME280;5638;50.860;4.698;2022-08-14T12:29:06;100175.69;;;34.20;nan
12054;BME280;5638;50.860;4.698;2022-08-14T12:31:35;100172.59;;;34.24;nan
12054;BME280;5638;50.860;4.698;2022-08-14T12:34:05;100159.69;;;33.91;nan
12054;BME280;5638;50.860;4.698;2022-08-14T12:36:33;100158.47;;;34.15;nan
12054;BME280;5638;50.860;4.698;2022-08-14T12:39:03;100159.13;;;34.17;nan
12054;BME280;5638;50.860;4.698;2022-08-14T12:41:32;100145.63;;;34.10;nan
12054;BME280;5638;50.860;4.698;2022-08-14T12:44:05;100142.66;;;33.62;nan
12054;BME280;5638;50.860;4.698;2022-08-14T12:46:38;100142.91;;;33.89;nan
12054;BME280;5638;50.860;4.698;2022-08-14T12:49:12;100151.97;;;34.03;nan
12054;BME280;5638;50.860;4.698;2022-08-14T12:51:39;100163.00;;;34.14;nan
12054;BME280;5638;50.860;4.698;2022-08-14T12:54:13;100163.19;;;33.70;nan
12054;BME280;5638;50.860;4.698;2022-08-14T12:56:40;100140.16;;;33.61;nan
12054;BME280;5638;50.860;4.698;2022-08-14T12:59:06;100156.84;;;33.78;nan
12054;BME280;5638;50.860;4.698;2022-08-14T13:01:35;100141.41;;;34.01;nan
12054;BME280;5638;50.860;4.698;2022-08-14T13:04:09;100139.41;;;34.31;nan
12054;BME280;5638;50.860;4.698;2022-08-14T13:06:39;100151.63;;;34.34;nan
12054;BME280;5638;50.860;4.698;2022-08-14T13:09:08;100141.13;;;34.39;nan
12054;BME280;5638;50.860;4.698;2022-08-14T13:11:50;100132.81;;;34.34;nan
12054;BME280;5638;50.860;4.698;2022-08-14T13:14:23;100126.81;;;34.32;nan
12054;BME280;5638;50.860;4.698;2022-08-14T13:16:54;100123.28;;;34.31;nan
12054;BME280;5638;50.860;4.698;2022-08-14T13:19:21;100130.38;;;34.39;nan
12054;BME280;5638;50.860;4.698;2022-08-14T13:21:49;100120.69;;;34.44;nan
12054;BME280;5638;50.860;4.698;2022-08-14T13:24:19;100135.28;;;34.29;nan
12054;BME280;5638;50.860;4.698;2022-08-14T13:26:49;100122.44;;;34.52;nan
12054;BME280;5638;50.860;4.698;2022-08-14T13:29:23;100116.19;;;34.45;nan
12054;BME280;5638;50.860;4.698;2022-08-14T13:31:55;100114.22;;;34.54;nan
12054;BME280;5638;50.860;4.698;2022-08-14T13:34:27;100110.03;;;34.51;nan
12054;BME280;5638;50.860;4.698;2022-08-14T13:36:55;100109.00;;;34.52;nan
12054;BME280;5638;50.860;4.698;2022-08-14T13:39:23;100092.81;;;34.74;nan
12054;BME280;5638;50.860;4.698;2022-08-14T13:41:50;100107.94;;;34.75;nan
12054;BME280;5638;50.860;4.698;2022-08-14T13:44:16;100107.69;;;34.41;nan
12054;BME280;5638;50.860;4.698;2022-08-14T13:46:46;100096.09;;;34.13;nan
12054;BME280;5638;50.860;4.698;2022-08-14T13:49:13;100088.63;;;33.87;nan
12054;BME280;5638;50.860;4.698;2022-08-14T13:51:42;100097.19;;;33.97;nan
12054;BME280;5638;50.860;4.698;2022-08-14T13:54:19;100100.81;;;33.89;nan